Portada
METAR-TAF:

METAR-TAF

Aeroports :

Seldovia, Alaska, Estats Units d'Amèrica

latitud: 59-27N, longitud: 151-42W, altitud: 9 m

Observació

L'informe es va fer fa 18 minuts, a les 19:53 UTC
Vent calma
Temperatura 0°C
Humitat 80%
Pressió 1003 hPa
Visibilitat: 16.1 km
Cel ennuvolat a una alçada de 900 ft
Cel cobert a una alçada de 7000 ft

METAR: PASO 061953Z AUTO 00000KT 10SM BKN009 OVC070 00/M03 A2963 RMK AO2 SLP032 T00001028 TSNO

Hora: 11:11 (20:11 UTC)


TAF: manca

Observacions i pronòstics meteorològics de més de 4000 aeroports (METAR i TAF).

Les estacions disponibles són els punts grocs i vermells al mapa.

Posi el ratolí al punt desitjat per veure el nom de l'estació.

Feu clic per veure les observacions i els pronòstics meteorològics.

Per canviar el mapa: feu clic els botons verds amb una creu de color negre per apropar; al botó verd amb un guió per allunyar la imatge; o en les fletxes verdes per a mapes adjacents.


METAR-TAF: